Time;durP1;ratioP1;P1;durP2;ratioP2;P2;SDS_P1;SDS_P2;PMS_P1;PMS_P2;Temp;Humidity;BMP_temperature;BMP_pressure;BME280_temperature;BME280_humidity;BME280_pressure;Samples;Min_cycle;Max_cycle;Signal;HPM_P1;HPM_P2
2022/03/19 00:01:59;;;;;;;13.30;2.97;;;4.80;82.00;;;;;;5060399;28;20430;-79
2022/03/19 00:04:25;;;;;;;13.07;2.85;;;4.80;81.90;;;;;;5059906;28;20127;-79
2022/03/19 00:06:50;;;;;;;11.00;3.53;;;4.90;82.00;;;;;;5059089;28;20123;-79
2022/03/19 00:09:16;;;;;;;8.75;2.50;;;4.90;82.00;;;;;;5060272;28;20048;-79
2022/03/19 00:11:42;;;;;;;12.45;2.65;;;5.00;82.10;;;;;;5076685;28;20051;-79
2022/03/19 00:14:11;;;;;;;8.93;3.58;;;5.00;81.90;;;;;;5076993;28;20070;-80
2022/03/19 00:16:38;;;;;;;11.02;2.80;;;5.00;82.10;;;;;;5077088;28;20054;-80
2022/03/19 00:19:04;;;;;;;16.73;3.42;;;5.00;82.20;;;;;;5060115;28;20131;-79
2022/03/19 00:21:30;;;;;;;15.60;3.72;;;5.00;81.90;;;;;;5076445;28;20122;-79
2022/03/19 00:23:58;;;;;;;11.23;3.00;;;4.90;81.80;;;;;;5059866;28;20039;-79
2022/03/19 00:26:24;;;;;;;11.75;2.90;;;4.80;81.90;;;;;;5043378;28;20040;-79
2022/03/19 00:28:50;;;;;;;12.55;3.15;;;4.80;81.80;;;;;;5075934;28;20074;-78
2022/03/19 00:31:15;;;;;;;18.42;4.32;;;4.70;81.80;;;;;;5076006;28;20090;-79
2022/03/19 00:33:41;;;;;;;13.68;4.00;;;4.70;81.90;;;;;;5059532;28;20043;-79
2022/03/19 00:36:07;;;;;;;13.10;3.65;;;4.70;82.20;;;;;;5059464;28;20043;-79
2022/03/19 00:38:32;;;;;;;15.40;4.10;;;4.60;82.30;;;;;;5076355;28;20075;-79
2022/03/19 00:40:58;;;;;;;11.18;4.05;;;4.60;82.10;;;;;;5076443;28;20047;-80
2022/03/19 00:43:24;;;;;;;13.60;4.18;;;4.60;82.20;;;;;;5076118;28;20488;-79
2022/03/19 00:45:50;;;;;;;14.77;5.28;;;4.60;82.40;;;;;;5076207;28;20399;-79
2022/03/19 00:48:16;;;;;;;11.20;3.63;;;4.60;82.60;;;;;;5076142;28;20185;-79
2022/03/19 00:50:42;;;;;;;13.77;3.78;;;4.60;82.40;;;;;;5075802;28;20040;-79
2022/03/19 00:53:07;;;;;;;12.13;2.78;;;4.60;82.50;;;;;;5075748;28;20048;-79
2022/03/19 00:55:33;;;;;;;12.25;2.92;;;4.60;82.60;;;;;;5059373;28;20036;-79
2022/03/19 00:57:59;;;;;;;15.60;2.88;;;4.60;82.80;;;;;;5058989;28;20388;-79
2022/03/19 01:00:26;;;;;;;12.60;2.75;;;4.60;82.80;;;;;;5059133;28;20047;-79
2022/03/19 01:02:54;;;;;;;9.98;2.83;;;4.50;82.20;;;;;;5075336;28;20054;-79
2022/03/19 01:05:20;;;;;;;8.88;3.03;;;4.40;82.30;;;;;;5059134;28;20048;-79
2022/03/19 01:07:54;;;;;;;10.07;2.78;;;4.40;82.30;;;;;;5075449;28;20062;-79
2022/03/19 01:10:22;;;;;;;12.60;3.40;;;4.30;82.30;;;;;;5058979;28;20550;-80
2022/03/19 01:12:49;;;;;;;13.98;2.58;;;4.20;82.20;;;;;;5093705;28;20042;-80
2022/03/19 01:15:16;;;;;;;14.85;2.80;;;4.20;82.50;;;;;;5075505;28;20040;-79
2022/03/19 01:17:42;;;;;;;9.02;2.50;;;4.20;82.60;;;;;;5074914;28;20056;-80
2022/03/19 01:20:10;;;;;;;10.18;2.70;;;4.20;82.40;;;;;;5075568;28;20040;-79
2022/03/19 01:22:40;;;;;;;11.38;2.97;;;4.30;82.80;;;;;;5076084;28;20044;-80
2022/03/19 01:25:08;;;;;;;10.40;2.55;;;4.30;83.00;;;;;;5076168;28;20028;-79
2022/03/19 01:27:35;;;;;;;11.93;3.00;;;4.30;82.70;;;;;;5074867;28;20127;-79
2022/03/19 01:30:02;;;;;;;11.30;2.80;;;4.30;82.60;;;;;;5074978;28;20581;-79
2022/03/19 01:32:28;;;;;;;11.63;2.63;;;4.30;82.90;;;;;;5074422;28;20552;-79
2022/03/19 01:34:54;;;;;;;9.30;2.10;;;4.20;83.10;;;;;;5058340;28;20430;-79
2022/03/19 01:37:21;;;;;;;12.98;2.72;;;4.20;83.30;;;;;;5075239;28;20032;-79
2022/03/19 01:39:47;;;;;;;13.15;3.83;;;4.20;83.30;;;;;;5074982;28;20480;-80
2022/03/19 01:42:25;;;;;;;12.07;2.40;;;4.20;83.30;;;;;;5075194;28;20044;-80
2022/03/19 01:44:52;;;;;;;12.73;2.88;;;4.10;83.10;;;;;;5075314;28;20040;-80
2022/03/19 01:47:18;;;;;;;12.80;3.40;;;4.10;83.00;;;;;;5058230;28;20507;-78
2022/03/19 01:49:44;;;;;;;12.25;2.85;;;4.10;83.10;;;;;;5074648;28;20040;-79
2022/03/19 01:52:09;;;;;;;13.13;2.67;;;4.00;83.20;;;;;;5074882;28;20097;-80
2022/03/19 01:54:37;;;;;;;13.65;2.72;;;4.00;83.00;;;;;;5058094;28;20036;-79
2022/03/19 01:57:03;;;;;;;10.63;2.70;;;4.00;83.20;;;;;;5075189;28;20388;-80
2022/03/19 01:59:35;;;;;;;9.25;2.25;;;3.90;83.10;;;;;;5058494;28;20105;-78
2022/03/19 02:02:06;;;;;;;17.73;3.13;;;3.80;82.90;;;;;;5075168;28;20408;-79
2022/03/19 02:04:34;;;;;;;11.07;2.25;;;3.80;83.20;;;;;;5074647;28;20047;-79
2022/03/19 02:07:01;;;;;;;12.60;2.78;;;3.80;83.50;;;;;;5075025;28;20468;-80
2022/03/19 02:09:34;;;;;;;14.25;3.10;;;3.80;83.30;;;;;;5074882;28;20083;-80
2022/03/19 02:12:00;;;;;;;13.50;2.80;;;3.80;83.80;;;;;;5074552;28;20044;-79
2022/03/19 02:14:26;;;;;;;20.05;3.42;;;3.80;83.80;;;;;;5074863;28;20046;-78
2022/03/19 02:16:53;;;;;;;17.73;3.45;;;3.70;83.60;;;;;;5074968;28;20040;-78
2022/03/19 02:19:19;;;;;;;14.50;3.20;;;3.70;83.70;;;;;;5074695;28;20052;-79
2022/03/19 02:21:46;;;;;;;15.25;3.10;;;3.70;83.60;;;;;;5058135;28;20036;-78
2022/03/19 02:26:58;;;;;;;15.07;3.38;;;3.70;83.90;;;;;;5074579;28;20511;-78
2022/03/19 02:29:24;;;;;;;10.02;2.65;;;3.60;83.70;;;;;;5060192;28;20043;-78
2022/03/19 02:31:52;;;;;;;10.63;2.85;;;3.70;84.00;;;;;;5078455;28;20036;-78
2022/03/19 02:34:18;;;;;;;13.98;3.20;;;3.70;83.80;;;;;;5078455;28;20043;-78
2022/03/19 02:36:45;;;;;;;18.75;3.25;;;3.70;83.80;;;;;;5078381;28;20036;-78
2022/03/19 02:39:13;;;;;;;12.88;2.85;;;3.70;84.50;;;;;;5078317;28;20047;-78
2022/03/19 02:41:59;;;;;;;12.00;2.70;;;3.80;84.50;;;;;;5078381;28;20036;-79
2022/03/19 02:44:25;;;;;;;12.93;2.88;;;3.70;84.20;;;;;;5078626;28;20404;-78
2022/03/19 02:46:53;;;;;;;11.40;3.10;;;3.60;84.10;;;;;;5078028;28;20040;-78
2022/03/19 02:49:21;;;;;;;13.98;3.03;;;3.60;84.00;;;;;;5061310;28;20032;-79
2022/03/19 02:51:50;;;;;;;11.00;2.85;;;3.60;84.10;;;;;;5078145;28;20040;-79
2022/03/19 02:54:21;;;;;;;16.33;3.42;;;3.50;84.20;;;;;;5077893;28;20044;-80
2022/03/19 02:56:47;;;;;;;16.75;3.83;;;3.40;84.20;;;;;;5078057;28;20150;-78
2022/03/19 02:59:20;;;;;;;11.95;3.25;;;3.40;84.40;;;;;;5061640;28;20094;-79
2022/03/19 03:01:48;;;;;;;11.40;3.17;;;3.40;84.20;;;;;;5061482;28;20028;-79
2022/03/19 03:04:13;;;;;;;10.98;2.90;;;3.40;84.60;;;;;;5078228;28;20043;-79
2022/03/19 03:06:41;;;;;;;16.27;3.08;;;3.30;84.80;;;;;;5077820;28;20399;-78
2022/03/19 03:09:07;;;;;;;13.55;3.60;;;3.30;84.50;;;;;;5077921;28;20530;-78
2022/03/19 03:11:34;;;;;;;12.55;3.28;;;3.30;84.80;;;;;;5077744;28;20047;-78
2022/03/19 03:13:59;;;;;;;17.65;3.40;;;3.30;84.90;;;;;;5061013;28;20113;-78
2022/03/19 03:16:26;;;;;;;12.85;3.42;;;3.30;84.70;;;;;;5061177;28;20035;-78
2022/03/19 03:18:55;;;;;;;10.30;3.13;;;3.30;84.70;;;;;;5044320;28;20055;-78
2022/03/19 03:21:21;;;;;;;13.70;4.25;;;3.40;85.20;;;;;;5077669;28;20496;-78
2022/03/19 03:23:47;;;;;;;13.55;3.17;;;3.40;85.40;;;;;;5077394;28;20073;-78
2022/03/19 03:26:12;;;;;;;12.43;3.80;;;3.40;85.30;;;;;;5077430;28;20435;-79
2022/03/19 03:28:38;;;;;;;13.43;3.35;;;3.40;85.00;;;;;;5077553;28;20040;-79
2022/03/19 03:31:04;;;;;;;7.93;2.58;;;3.40;84.90;;;;;;5077415;28;20173;-79
2022/03/19 03:33:30;;;;;;;14.95;3.72;;;3.30;85.20;;;;;;5060676;28;20047;-79
2022/03/19 03:35:55;;;;;;;16.08;3.42;;;3.30;85.30;;;;;;5077340;28;20036;-78
2022/03/19 03:38:21;;;;;;;10.02;2.90;;;3.30;85.20;;;;;;5077105;28;20066;-78
2022/03/19 03:40:47;;;;;;;11.63;2.92;;;3.30;85.10;;;;;;5077498;28;20047;-79
2022/03/19 03:43:12;;;;;;;10.45;3.55;;;3.20;85.10;;;;;;5077172;28;20042;-79
2022/03/19 03:45:38;;;;;;;11.38;3.33;;;3.30;85.30;;;;;;5060612;28;20048;-79
2022/03/19 03:48:04;;;;;;;9.98;2.80;;;3.30;85.30;;;;;;5060460;28;20480;-77
2022/03/19 03:50:31;;;;;;;11.30;3.05;;;3.30;85.70;;;;;;5077374;28;20040;-77
2022/03/19 03:52:57;;;;;;;16.63;4.82;;;3.30;86.00;;;;;;5076937;28;20043;-77
2022/03/19 03:55:22;;;;;;;13.32;3.03;;;3.40;85.90;;;;;;5076988;28;20036;-77
2022/03/19 03:57:48;;;;;;;10.13;2.80;;;3.40;86.20;;;;;;5077145;28;20126;-77
2022/03/19 04:00:15;;;;;;;13.18;3.00;;;3.50;86.30;;;;;;5060087;28;20483;-77
2022/03/19 04:02:41;;;;;;;15.75;3.40;;;3.50;86.30;;;;;;5076894;28;20044;-77
2022/03/19 04:05:08;;;;;;;10.75;3.88;;;3.40;85.80;;;;;;5060108;28;20044;-77
2022/03/19 04:07:34;;;;;;;12.35;3.00;;;3.40;86.00;;;;;;5060060;28;20048;-77
2022/03/19 04:10:00;;;;;;;12.35;3.42;;;3.50;85.90;;;;;;5077010;28;20039;-77
2022/03/19 04:12:25;;;;;;;14.88;3.67;;;3.50;86.30;;;;;;5076603;28;20562;-77
2022/03/19 04:14:54;;;;;;;15.45;3.40;;;3.50;85.70;;;;;;5076532;28;20040;-76
2022/03/19 04:17:20;;;;;;;20.70;3.95;;;3.50;85.70;;;;;;5059597;28;20044;-77
2022/03/19 04:19:46;;;;;;;13.02;4.05;;;3.40;86.20;;;;;;5059842;28;20047;-77
2022/03/19 04:22:12;;;;;;;14.20;3.88;;;3.40;86.20;;;;;;5059744;28;20040;-77
2022/03/19 04:24:38;;;;;;;13.50;3.78;;;3.50;86.30;;;;;;5076708;28;20044;-77
2022/03/19 04:27:04;;;;;;;13.68;4.28;;;3.60;86.40;;;;;;5076374;28;20047;-77
2022/03/19 04:29:30;;;;;;;13.38;4.05;;;3.50;86.40;;;;;;5076298;28;20042;-77
2022/03/19 04:31:57;;;;;;;15.98;4.15;;;3.50;86.10;;;;;;5076202;28;20044;-77
2022/03/19 04:34:23;;;;;;;16.73;3.97;;;3.40;86.40;;;;;;5059512;28;20040;-77
2022/03/19 04:36:49;;;;;;;14.32;4.85;;;3.40;86.20;;;;;;5076398;28;20032;-76
2022/03/19 04:39:15;;;;;;;10.90;4.07;;;3.40;86.30;;;;;;5059489;28;20472;-77
2022/03/19 04:41:41;;;;;;;15.18;5.70;;;3.40;86.50;;;;;;5076329;28;20044;-77
2022/03/19 04:44:08;;;;;;;12.82;3.85;;;3.40;86.50;;;;;;5042833;28;20055;-77
2022/03/19 04:46:35;;;;;;;19.33;4.60;;;3.40;86.60;;;;;;5059268;28;20036;-77
2022/03/19 04:49:01;;;;;;;11.70;4.47;;;3.40;86.70;;;;;;5059263;28;20503;-77
2022/03/19 04:51:32;;;;;;;10.70;3.65;;;3.40;86.70;;;;;;5075420;28;20044;-77
2022/03/19 04:53:58;;;;;;;17.60;4.78;;;3.40;86.60;;;;;;5075885;28;20074;-77
2022/03/19 04:56:26;;;;;;;16.33;4.47;;;3.30;86.70;;;;;;5075965;28;20082;-77
2022/03/19 04:58:54;;;;;;;11.05;4.00;;;3.30;86.70;;;;;;5059149;28;20118;-77
2022/03/19 05:01:21;;;;;;;17.85;4.65;;;3.30;86.80;;;;;;5075826;28;20369;-77
2022/03/19 05:03:47;;;;;;;14.15;5.18;;;3.20;86.50;;;;;;5075644;28;20044;-77
2022/03/19 05:06:12;;;;;;;14.32;4.47;;;3.20;86.30;;;;;;5058973;28;20051;-77
2022/03/19 05:08:38;;;;;;;17.15;4.45;;;3.10;86.40;;;;;;5059229;28;20051;-77
2022/03/19 05:11:13;;;;;;;14.43;4.85;;;3.20;86.60;;;;;;5059064;28;20032;-77
2022/03/19 05:13:44;;;;;;;15.52;4.95;;;3.20;86.60;;;;;;5060036;28;20039;-77
2022/03/19 05:16:10;;;;;;;14.88;4.13;;;3.10;86.20;;;;;;5075593;28;20039;-77
2022/03/19 05:18:37;;;;;;;16.73;4.85;;;3.10;86.20;;;;;;5075180;28;20048;-77
2022/03/19 05:21:03;;;;;;;12.57;4.90;;;3.10;86.50;;;;;;5075594;28;20392;-77
2022/03/19 05:23:30;;;;;;;10.77;5.07;;;3.10;86.30;;;;;;5075303;28;20044;-77
2022/03/19 05:25:55;;;;;;;16.52;5.05;;;3.10;86.20;;;;;;5075233;28;20044;-77
2022/03/19 05:28:21;;;;;;;14.90;5.20;;;3.10;86.10;;;;;;5058516;28;20069;-77
2022/03/19 05:30:48;;;;;;;12.90;4.88;;;3.10;86.70;;;;;;5058494;28;20044;-77
2022/03/19 05:33:14;;;;;;;14.88;5.32;;;3.10;86.90;;;;;;5075190;28;20126;-77
2022/03/19 05:35:41;;;;;;;12.25;5.05;;;3.10;86.90;;;;;;5074991;28;20094;-77
2022/03/19 05:38:08;;;;;;;16.35;5.78;;;3.10;86.50;;;;;;5058433;28;20032;-77
2022/03/19 05:40:34;;;;;;;22.60;7.18;;;3.10;86.30;;;;;;5058439;28;20036;-77
2022/03/19 05:43:00;;;;;;;16.58;4.88;;;3.20;86.50;;;;;;5075226;28;20088;-77
2022/03/19 05:45:26;;;;;;;16.95;5.82;;;3.10;86.40;;;;;;5058323;28;20174;-77
2022/03/19 05:47:52;;;;;;;18.85;6.25;;;3.10;86.00;;;;;;5075399;28;20503;-76
2022/03/19 05:50:18;;;;;;;20.63;6.18;;;3.10;86.40;;;;;;5075068;28;20078;-77
2022/03/19 05:52:47;;;;;;;14.18;5.35;;;3.10;86.40;;;;;;5058430;28;20040;-77
2022/03/19 05:55:14;;;;;;;16.52;5.22;;;3.10;86.60;;;;;;5075017;28;20181;-77
2022/03/19 05:57:40;;;;;;;17.30;5.13;;;3.10;86.20;;;;;;5074921;28;20044;-77
2022/03/19 06:00:08;;;;;;;16.38;5.57;;;3.10;86.30;;;;;;5075178;28;20089;-77
2022/03/19 06:02:44;;;;;;;16.77;5.22;;;3.20;86.40;;;;;;5076093;28;20040;-76
2022/03/19 06:05:10;;;;;;;15.27;5.90;;;3.20;86.20;;;;;;5079474;28;20046;-77
2022/03/19 06:07:36;;;;;;;14.93;5.53;;;3.20;86.50;;;;;;5079575;28;20463;-77
2022/03/19 06:10:02;;;;;;;17.27;5.20;;;3.20;86.80;;;;;;5079273;28;20075;-76
2022/03/19 06:12:28;;;;;;;18.90;5.40;;;3.20;87.10;;;;;;5078980;28;20044;-78
2022/03/19 06:14:54;;;;;;;14.40;5.72;;;3.10;87.20;;;;;;5062433;28;20391;-78
2022/03/19 06:17:21;;;;;;;13.98;4.93;;;3.20;87.30;;;;;;5062177;28;20062;-78
2022/03/19 06:19:46;;;;;;;13.80;6.05;;;3.20;87.10;;;;;;5062360;28;20093;-78
2022/03/19 06:22:12;;;;;;;12.80;5.53;;;3.20;87.00;;;;;;5062136;28;20488;-77
2022/03/19 06:24:38;;;;;;;16.70;6.38;;;3.30;87.20;;;;;;5079071;28;20206;-77
2022/03/19 06:27:04;;;;;;;16.33;5.70;;;3.30;87.40;;;;;;5062242;28;20468;-78
2022/03/19 06:29:30;;;;;;;16.05;5.80;;;3.40;86.70;;;;;;5029337;28;20039;-77
2022/03/19 06:31:55;;;;;;;13.90;6.95;;;3.40;87.20;;;;;;5062182;28;20636;-78
2022/03/19 06:34:21;;;;;;;17.08;7.13;;;3.50;86.90;;;;;;5078471;28;20127;-77
2022/03/19 06:39:32;;;;;;;12.13;5.88;;;3.60;87.30;;;;;;5064447;28;20537;-79
2022/03/19 06:41:58;;;;;;;14.00;6.53;;;3.70;87.50;;;;;;5078555;28;20035;-78
2022/03/19 06:44:24;;;;;;;20.17;7.45;;;3.70;87.30;;;;;;5078172;28;20032;-77
2022/03/19 06:46:52;;;;;;;12.15;5.43;;;3.80;86.80;;;;;;5062205;28;20071;-78
2022/03/19 06:49:18;;;;;;;11.48;5.00;;;4.00;86.50;;;;;;5078181;28;20071;-77
2022/03/19 06:51:44;;;;;;;20.38;7.07;;;4.00;87.10;;;;;;5061785;28;20430;-77
2022/03/19 06:54:09;;;;;;;12.40;5.53;;;4.10;87.30;;;;;;5061506;28;20097;-77
2022/03/19 06:56:35;;;;;;;13.35;6.80;;;4.20;87.40;;;;;;5078146;28;20058;-78
2022/03/19 06:59:01;;;;;;;12.80;6.07;;;4.30;86.70;;;;;;5061455;28;20039;-77
2022/03/19 07:01:27;;;;;;;16.70;6.32;;;4.30;86.60;;;;;;5061546;28;20123;-77
2022/03/19 07:03:52;;;;;;;15.18;4.85;;;4.50;87.10;;;;;;5078131;28;20561;-75
2022/03/19 07:06:18;;;;;;;14.32;6.07;;;4.60;86.30;;;;;;5077796;28;20036;-74
2022/03/19 07:08:44;;;;;;;28.05;23.95;;;4.60;86.00;;;;;;5061341;28;20035;-75
2022/03/19 07:11:10;;;;;;;17.35;7.43;;;4.80;85.80;;;;;;5061252;28;20036;-75
2022/03/19 07:13:37;;;;;;;16.67;7.13;;;4.90;85.70;;;;;;5077644;28;20036;-76
2022/03/19 07:16:03;;;;;;;15.05;6.18;;;4.90;85.60;;;;;;5077270;28;20036;-76
2022/03/19 07:18:29;;;;;;;14.82;7.50;;;5.10;85.40;;;;;;5077545;28;20078;-79
2022/03/19 07:20:55;;;;;;;16.60;7.75;;;5.20;85.20;;;;;;5060973;28;20044;-76
2022/03/19 07:23:21;;;;;;;16.48;6.70;;;5.20;85.20;;;;;;5060953;28;20048;-77
2022/03/19 07:25:46;;;;;;;15.15;6.55;;;5.30;85.00;;;;;;5061087;28;20430;-76
2022/03/19 07:28:14;;;;;;;14.80;7.07;;;5.40;84.80;;;;;;5077448;28;20496;-77
2022/03/19 07:30:41;;;;;;;12.88;6.90;;;5.50;84.50;;;;;;5077455;28;20040;-76
2022/03/19 07:33:08;;;;;;;16.33;6.45;;;5.60;84.40;;;;;;5060884;28;20400;-75
2022/03/19 07:35:34;;;;;;;18.02;6.88;;;5.60;84.40;;;;;;5060694;28;20047;-75
2022/03/19 07:38:02;;;;;;;16.27;6.68;;;5.60;84.40;;;;;;5077409;28;20036;-76
2022/03/19 07:43:13;;;;;;;;;;;5.80;84.20;;;;;;5077704;28;20051;-78
2022/03/19 07:45:40;;;;;;;18.92;7.50;;;5.60;92.00;;;;;;5060806;28;19942;-76
2022/03/19 07:48:07;;;;;;;17.20;7.75;;;5.40;88.90;;;;;;5077192;28;20044;-77
2022/03/19 07:50:33;;;;;;;16.77;7.57;;;5.30;88.60;;;;;;5060523;28;20047;-77
2022/03/19 07:52:59;;;;;;;22.27;7.53;;;5.20;89.00;;;;;;5077029;28;20557;-76
2022/03/19 07:55:25;;;;;;;18.55;8.10;;;5.10;89.50;;;;;;5077215;28;20041;-76
2022/03/19 07:57:51;;;;;;;17.45;7.30;;;5.10;89.40;;;;;;5060395;28;20493;-76
2022/03/19 08:00:18;;;;;;;16.38;6.75;;;5.10;89.60;;;;;;5076734;28;20036;-77
2022/03/19 08:02:44;;;;;;;19.30;7.93;;;5.20;89.80;;;;;;5060253;28;20044;-76
2022/03/19 08:05:11;;;;;;;13.15;6.75;;;5.20;90.00;;;;;;5077102;28;20127;-76
2022/03/19 08:07:37;;;;;;;18.52;7.85;;;5.30;90.30;;;;;;5076775;28;20131;-77
2022/03/19 08:10:04;;;;;;;18.15;7.72;;;5.40;90.10;;;;;;5076728;28;20093;-77
2022/03/19 08:12:31;;;;;;;17.83;6.93;;;5.50;90.10;;;;;;5060264;28;20400;-77
2022/03/19 08:14:59;;;;;;;15.55;7.75;;;5.50;92.30;;;;;;5076873;28;20040;-77
2022/03/19 08:17:26;;;;;;;12.57;7.07;;;5.60;90.30;;;;;;5043684;28;20105;-77
2022/03/19 08:19:52;;;;;;;15.75;6.72;;;5.60;91.20;;;;;;5076846;28;20462;-76
2022/03/19 08:22:18;;;;;;;17.40;8.07;;;5.70;90.50;;;;;;5076813;28;20062;-76
2022/03/19 08:24:46;;;;;;;19.10;6.47;;;5.80;90.90;;;;;;5059880;28;20449;-77
2022/03/19 08:27:11;;;;;;;14.95;6.93;;;5.90;90.60;;;;;;5058717;28;20051;-77
2022/03/19 08:29:38;;;;;;;16.90;6.28;;;6.00;90.70;;;;;;5059703;28;20423;-77
2022/03/19 08:32:04;;;;;;;20.30;8.00;;;6.10;91.40;;;;;;5076504;28;20100;-77
2022/03/19 08:34:30;;;;;;;19.73;6.75;;;6.10;91.00;;;;;;5076203;28;20074;-77
2022/03/19 08:37:01;;;;;;;14.50;6.00;;;6.20;91.00;;;;;;5076058;28;20039;-78
2022/03/19 08:42:12;;;;;;;16.10;6.47;;;6.30;91.40;;;;;;5048161;28;20185;-79
2022/03/19 08:44:37;;;;;;;14.07;5.60;;;6.30;91.80;;;;;;5076069;28;20123;-79
2022/03/19 08:47:03;;;;;;;18.27;7.22;;;6.40;92.50;;;;;;5059677;28;20036;-79
2022/03/19 08:49:29;;;;;;;14.63;6.07;;;6.50;91.90;;;;;;5059939;28;20035;-78
2022/03/19 08:51:55;;;;;;;14.93;5.88;;;6.60;91.20;;;;;;5059245;28;20040;-78
2022/03/19 08:54:21;;;;;;;12.32;5.32;;;6.60;91.90;;;;;;5075895;28;20511;-79
2022/03/19 08:56:49;;;;;;;17.80;5.30;;;6.70;91.40;;;;;;5059018;28;20039;-78
2022/03/19 08:59:20;;;;;;;13.50;6.20;;;6.70;91.20;;;;;;5059421;28;20376;-81
2022/03/19 09:01:48;;;;;;;15.57;4.97;;;6.80;90.70;;;;;;5075970;28;20032;-77
2022/03/19 09:04:14;;;;;;;11.85;4.28;;;6.90;91.10;;;;;;5075876;28;20043;-79
2022/03/19 09:06:41;;;;;;;11.32;4.00;;;7.00;90.60;;;;;;5042650;28;20063;-79
2022/03/19 09:09:07;;;;;;;15.35;4.70;;;7.00;89.00;;;;;;5058921;28;20047;-79
2022/03/19 09:11:34;;;;;;;9.50;5.10;;;7.00;89.40;;;;;;5075623;28;20135;-79
2022/03/19 09:14:01;;;;;;;13.32;4.28;;;7.20;89.70;;;;;;5075603;28;20040;-80
2022/03/19 09:16:27;;;;;;;11.95;3.60;;;7.30;87.40;;;;;;5084259;28;20051;-79
2022/03/19 09:18:54;;;;;;;11.90;4.10;;;7.30;89.20;;;;;;5046215;28;20060;-80
2022/03/19 09:21:20;;;;;;;9.25;3.50;;;7.40;87.50;;;;;;5055532;28;20109;-81
2022/03/19 09:23:47;;;;;;;25.65;6.03;;;7.60;88.10;;;;;;5055399;28;20048;-80
2022/03/19 09:26:13;;;;;;;16.83;5.97;;;7.70;88.40;;;;;;5071909;28;20085;-79
2022/03/19 09:28:39;;;;;;;10.90;3.63;;;7.70;86.40;;;;;;5071941;28;20040;-79
2022/03/19 09:31:05;;;;;;;55.83;8.02;;;7.80;87.80;;;;;;5055156;28;20036;-79
2022/03/19 09:33:31;;;;;;;13.32;3.63;;;8.00;87.60;;;;;;5055357;28;20037;-78
2022/03/19 09:35:57;;;;;;;12.00;3.15;;;8.00;87.90;;;;;;5071837;28;20456;-78
2022/03/19 09:38:23;;;;;;;12.45;4.07;;;8.10;86.60;;;;;;5055555;28;20106;-79
2022/03/19 09:40:49;;;;;;;15.60;3.33;;;8.10;86.50;;;;;;5072132;28;20431;-79
2022/03/19 09:43:15;;;;;;;10.40;3.90;;;8.30;87.40;;;;;;5055065;28;20044;-79
2022/03/19 09:45:41;;;;;;;10.02;3.13;;;8.40;82.70;;;;;;5054786;28;20132;-80
2022/03/19 09:48:07;;;;;;;32.85;5.72;;;8.40;81.80;;;;;;5072032;28;20040;-80
2022/03/19 09:50:35;;;;;;;11.30;3.13;;;8.40;83.60;;;;;;5038713;28;20052;-80
2022/03/19 09:53:04;;;;;;;8.93;2.80;;;8.50;84.00;;;;;;5071874;28;20064;-80
2022/03/19 09:55:30;;;;;;;9.63;3.00;;;8.50;80.80;;;;;;5071602;28;20040;-80
2022/03/19 09:57:57;;;;;;;9.82;2.40;;;8.50;82.10;;;;;;5055263;28;20075;-77
2022/03/19 10:00:24;;;;;;;28.30;4.93;;;8.60;79.40;;;;;;5038377;28;20472;-78
2022/03/19 10:03:01;;;;;;;10.57;3.05;;;8.70;81.60;;;;;;5055191;28;20444;-79
2022/03/19 10:08:43;;;;;;;12.93;3.20;;;8.80;79.00;;;;;;5071921;28;20041;-79
2022/03/19 10:11:11;;;;;;;14.35;3.08;;;9.10;79.00;;;;;;5071887;28;20047;-79
2022/03/19 10:13:48;;;;;;;18.92;3.85;;;9.30;79.50;;;;;;5038171;28;20067;-79
2022/03/19 10:16:25;;;;;;;10.35;2.22;;;9.40;75.50;;;;;;5054945;28;20041;-80
2022/03/19 10:18:59;;;;;;;12.55;3.15;;;9.70;73.90;;;;;;5071201;28;20090;-78
2022/03/19 10:21:27;;;;;;;8.63;3.42;;;9.90;73.80;;;;;;5054857;28;20124;-79
2022/03/19 10:23:55;;;;;;;12.25;3.45;;;10.10;72.90;;;;;;5071361;28;20044;-81
2022/03/19 10:26:26;;;;;;;9.35;3.65;;;10.30;74.40;;;;;;5054884;28;20048;-81
2022/03/19 10:29:04;;;;;;;31.63;6.50;;;10.50;72.30;;;;;;5071597;28;20127;-81
2022/03/19 10:31:35;;;;;;;379.75;56.10;;;10.70;73.50;;;;;;5055079;28;20499;-78
2022/03/19 10:34:01;;;;;;;12.30;3.10;;;10.70;72.90;;;;;;5071357;28;20520;-79
2022/03/19 10:36:39;;;;;;;14.02;4.57;;;10.60;67.70;;;;;;5054735;28;20045;-78
2022/03/19 10:39:20;;;;;;;11.27;2.92;;;10.70;69.90;;;;;;5071403;28;20082;-78
2022/03/19 10:41:46;;;;;;;8.15;2.65;;;10.90;70.20;;;;;;5055219;28;20066;-79
2022/03/19 10:44:13;;;;;;;11.40;3.65;;;11.00;63.00;;;;;;5054615;28;20036;-79
2022/03/19 10:46:53;;;;;;;174.63;26.70;;;11.10;67.40;;;;;;5071015;28;20119;-78
2022/03/19 10:49:24;;;;;;;9.00;2.97;;;11.30;67.30;;;;;;5071560;28;20045;-78
2022/03/19 10:51:54;;;;;;;8.50;2.70;;;11.50;70.60;;;;;;5058611;28;20040;-78
2022/03/19 10:54:22;;;;;;;47.45;8.00;;;11.70;68.30;;;;;;5075114;28;20131;-78
2022/03/19 10:56:49;;;;;;;6.07;2.90;;;11.90;69.20;;;;;;5058375;28;20032;-78
2022/03/19 10:59:15;;;;;;;185.05;25.23;;;11.90;65.20;;;;;;5058227;28;20139;-78
2022/03/19 11:01:41;;;;;;;12.52;4.15;;;12.00;65.30;;;;;;5074659;28;20041;-78
2022/03/19 11:04:09;;;;;;;6.15;2.35;;;12.10;66.70;;;;;;5074680;28;20044;-77
2022/03/19 11:06:37;;;;;;;8.70;2.50;;;12.20;63.10;;;;;;5074648;28;20049;-78
2022/03/19 11:09:06;;;;;;;7.53;2.80;;;12.20;62.30;;;;;;5057768;28;20032;-78
2022/03/19 11:11:37;;;;;;;9.38;2.88;;;12.40;61.00;;;;;;5074479;28;20037;-79
2022/03/19 11:14:04;;;;;;;11.93;3.58;;;12.50;62.70;;;;;;5074349;28;20045;-79
2022/03/19 11:16:35;;;;;;;7.50;2.92;;;12.90;64.50;;;;;;5074398;28;20075;-78
2022/03/19 11:19:03;;;;;;;9.65;2.50;;;13.00;59.50;;;;;;5057550;28;20056;-78
2022/03/19 11:21:32;;;;;;;9.93;4.13;;;13.20;59.80;;;;;;5074332;28;20037;-79
2022/03/19 11:24:08;;;;;;;8.88;2.42;;;13.40;61.60;;;;;;5074621;28;20389;-78
2022/03/19 11:26:35;;;;;;;194.32;25.45;;;13.30;61.80;;;;;;5074528;28;20384;-78
2022/03/19 11:29:01;;;;;;;10.90;3.00;;;13.50;61.60;;;;;;5074267;28;20090;-78
2022/03/19 11:31:29;;;;;;;8.35;3.13;;;13.60;61.00;;;;;;5057849;28;20089;-78
2022/03/19 11:34:12;;;;;;;7.32;2.83;;;13.70;61.80;;;;;;5074138;28;20400;-79
2022/03/19 11:36:57;;;;;;;7.47;2.50;;;13.70;58.80;;;;;;5057567;28;20421;-78
2022/03/19 11:39:24;;;;;;;31.50;4.13;;;13.60;55.30;;;;;;5074049;28;20044;-78
2022/03/19 11:41:51;;;;;;;38.88;6.22;;;13.80;56.60;;;;;;5074010;28;20037;-78
2022/03/19 11:44:25;;;;;;;6.38;2.33;;;13.90;57.00;;;;;;5040991;28;20040;-78
2022/03/19 11:47:06;;;;;;;58.33;7.88;;;14.10;57.50;;;;;;5074021;28;20128;-79
2022/03/19 11:49:53;;;;;;;8.45;2.78;;;14.40;59.90;;;;;;5074155;28;20049;-78
2022/03/19 11:52:27;;;;;;;284.55;44.80;;;14.50;58.10;;;;;;5074034;28;20400;-78
2022/03/19 11:55:05;;;;;;;13.23;3.40;;;14.80;60.60;;;;;;5074277;28;20388;-79
2022/03/19 11:58:03;;;;;;;13.43;3.08;;;14.90;58.60;;;;;;5074039;28;20381;-79
2022/03/19 12:00:30;;;;;;;8.93;2.83;;;14.70;55.00;;;;;;5044590;28;20047;-78
2022/03/19 12:03:17;;;;;;;12.73;2.58;;;14.60;57.30;;;;;;5072898;28;20119;-79
2022/03/19 12:05:44;;;;;;;10.43;2.70;;;14.80;53.20;;;;;;5073657;28;20392;-79
2022/03/19 12:08:21;;;;;;;8.70;2.80;;;15.00;56.80;;;;;;5057011;28;20082;-79
2022/03/19 12:10:58;;;;;;;5.68;2.25;;;15.10;56.30;;;;;;5056937;28;20370;-79
2022/03/19 12:13:26;;;;;;;9.25;2.75;;;15.20;55.00;;;;;;5056609;28;20079;-80
2022/03/19 12:15:53;;;;;;;6.95;2.05;;;15.20;54.50;;;;;;5056842;28;20431;-80
2022/03/19 12:18:44;;;;;;;5.45;2.15;;;15.20;52.60;;;;;;5056622;28;20056;-80
2022/03/19 12:21:10;;;;;;;6.90;2.42;;;15.10;52.40;;;;;;5073316;28;20094;-80
2022/03/19 12:23:50;;;;;;;5.63;2.28;;;15.10;51.90;;;;;;5056859;28;20040;-80
2022/03/19 12:26:20;;;;;;;195.93;29.15;;;15.10;42.00;;;;;;5073016;28;20040;-80
2022/03/19 12:28:57;;;;;;;8.65;2.83;;;15.20;52.50;;;;;;5072948;28;20127;-80
2022/03/19 12:31:51;;;;;;;8.13;2.42;;;15.20;43.00;;;;;;5073304;28;20046;-80
2022/03/19 12:34:23;;;;;;;490.27;88.38;;;15.50;51.00;;;;;;5062172;28;20059;-80
2022/03/19 12:36:50;;;;;;;9.60;3.47;;;15.70;51.00;;;;;;5072926;28;20106;-80
2022/03/19 12:39:16;;;;;;;6.97;2.90;;;15.70;51.10;;;;;;5039544;28;20076;-80
2022/03/19 12:41:43;;;;;;;11.93;2.10;;;15.70;49.60;;;;;;5073263;28;20072;-80
2022/03/19 12:44:20;;;;;;;6.45;2.05;;;15.60;48.60;;;;;;5056365;28;20036;-80
2022/03/19 12:46:47;;;;;;;12.40;2.03;;;15.60;49.20;;;;;;5056368;28;20048;-80
2022/03/19 12:49:17;;;;;;;5.40;2.10;;;15.50;48.30;;;;;;5072600;28;20384;-79
2022/03/19 12:51:48;;;;;;;4.13;2.00;;;15.40;43.30;;;;;;5072603;28;20040;-79
2022/03/19 12:54:31;;;;;;;3.72;1.63;;;15.60;48.80;;;;;;5072597;28;20079;-79
2022/03/19 12:57:23;;;;;;;7.28;1.92;;;15.70;47.30;;;;;;5072815;28;20047;-80
2022/03/19 13:00:07;;;;;;;5.75;1.42;;;15.80;48.20;;;;;;5073709;28;20044;-80
2022/03/19 13:02:33;;;;;;;3.60;1.35;;;16.00;47.70;;;;;;5072781;28;20044;-80
2022/03/19 13:04:59;;;;;;;5.15;1.52;;;16.20;46.90;;;;;;5039332;28;20424;-82